createdAt,value
2023-05-16T00:02:13.601Z,4.93
2023-05-16T00:04:41.844Z,4.70
2023-05-16T00:07:10.219Z,4.68
2023-05-16T00:09:38.522Z,4.61
2023-05-16T00:12:07.689Z,4.64
2023-05-16T00:14:36.482Z,4.61
2023-05-16T00:17:11.542Z,4.52
2023-05-16T00:19:42.149Z,4.82
2023-05-16T00:22:11.410Z,4.53
2023-05-16T00:24:39.873Z,4.49
2023-05-16T00:27:08.228Z,4.56
2023-05-16T00:29:36.666Z,4.50
2023-05-16T00:32:05.223Z,4.50
2023-05-16T00:34:33.387Z,4.70
2023-05-16T00:37:03.298Z,4.55
2023-05-16T00:39:32.502Z,4.60
2023-05-16T00:42:00.862Z,4.64
2023-05-16T00:44:29.952Z,4.62
2023-05-16T00:46:58.349Z,4.52
2023-05-16T00:49:26.919Z,4.63
2023-05-16T00:51:55.728Z,4.38
2023-05-16T00:54:29.336Z,4.46
2023-05-16T00:56:58.064Z,4.49
2023-05-16T00:59:26.805Z,4.30
2023-05-16T01:01:56.136Z,4.41
2023-05-16T01:04:24.517Z,4.32
2023-05-16T01:06:53.105Z,4.42
2023-05-16T01:09:22.114Z,4.53
2023-05-16T01:12:03.881Z,4.62
2023-05-16T01:14:45.179Z,4.39
2023-05-16T01:17:23.837Z,4.31
2023-05-16T01:20:08.461Z,4.17
2023-05-16T01:23:00.218Z,4.21
2023-05-16T01:25:42.524Z,4.25
2023-05-16T01:28:14.336Z,4.29
2023-05-16T01:30:42.718Z,4.31
2023-05-16T01:33:11.361Z,4.37
2023-05-16T01:36:02.572Z,4.33
2023-05-16T01:38:41.738Z,4.20
2023-05-16T01:41:20.044Z,3.95
2023-05-16T01:43:56.928Z,4.28
2023-05-16T01:46:29.961Z,4.30
2023-05-16T01:49:07.141Z,4.21
2023-05-16T01:51:39.275Z,4.09
2023-05-16T01:54:14.152Z,4.16
2023-05-16T01:56:47.524Z,4.27
2023-05-16T01:59:17.526Z,4.16
2023-05-16T02:01:46.218Z,4.22
2023-05-16T02:04:15.401Z,4.09
2023-05-16T02:06:43.991Z,4.04
2023-05-16T02:09:12.187Z,4.05
2023-05-16T02:11:41.995Z,3.86
2023-05-16T02:14:10.241Z,3.87
2023-05-16T02:16:39.934Z,4.00
2023-05-16T02:19:08.232Z,4.00
2023-05-16T02:21:36.509Z,4.00
2023-05-16T02:24:05.306Z,4.01
2023-05-16T02:26:33.990Z,3.83
2023-05-16T02:29:02.218Z,3.88
2023-05-16T02:31:32.693Z,3.92
2023-05-16T02:34:02.887Z,3.89
2023-05-16T02:36:32.132Z,3.99
2023-05-16T02:39:00.360Z,3.88
2023-05-16T02:41:28.702Z,4.11
2023-05-16T02:43:56.932Z,4.10
2023-05-16T02:46:28.321Z,4.05
2023-05-16T02:48:57.436Z,3.96
2023-05-16T02:51:29.592Z,3.89
2023-05-16T02:53:59.724Z,4.02
2023-05-16T02:56:28.242Z,4.13
2023-05-16T02:58:56.834Z,4.22
2023-05-16T03:01:25.618Z,4.13
2023-05-16T03:03:53.974Z,4.12
2023-05-16T03:06:22.727Z,3.98
2023-05-16T03:08:52.273Z,3.71
2023-05-16T03:11:21.762Z,4.04
2023-05-16T03:13:50.366Z,4.05
2023-05-16T03:16:18.661Z,4.09
2023-05-16T03:18:47.072Z,3.81
2023-05-16T03:21:15.362Z,3.93
2023-05-16T03:23:46.313Z,4.00
2023-05-16T03:26:15.880Z,3.87
2023-05-16T03:28:44.104Z,3.93
2023-05-16T03:31:12.291Z,3.81
2023-05-16T03:33:40.484Z,3.97
2023-05-16T03:36:09.689Z,4.00
2023-05-16T03:38:38.297Z,3.96
2023-05-16T03:41:06.777Z,4.13
2023-05-16T03:43:37.466Z,4.15
2023-05-16T03:46:05.691Z,4.20
2023-05-16T03:48:33.940Z,4.18
2023-05-16T03:51:02.135Z,4.21
2023-05-16T03:53:30.352Z,4.13
2023-05-16T03:55:59.746Z,4.28
2023-05-16T03:58:28.257Z,4.44
2023-05-16T04:00:57.755Z,4.39
2023-05-16T04:03:28.646Z,4.18
2023-05-16T04:05:57.643Z,4.42
2023-05-16T04:08:26.036Z,4.47
2023-05-16T04:10:54.549Z,4.43
2023-05-16T04:13:22.894Z,4.46
2023-05-16T04:15:51.126Z,4.35
2023-05-16T04:18:20.717Z,4.36
2023-05-16T04:20:48.866Z,4.23
2023-05-16T04:23:17.039Z,4.55
2023-05-16T04:25:46.996Z,4.63
2023-05-16T04:28:15.718Z,4.71
2023-05-16T04:30:43.907Z,4.53
2023-05-16T04:33:12.674Z,4.25
2023-05-16T04:35:42.583Z,4.37
2023-05-16T04:38:10.813Z,4.66
2023-05-16T04:40:40.424Z,4.63
2023-05-16T04:43:08.783Z,4.68
2023-05-16T04:45:37.976Z,4.89
2023-05-16T04:48:06.750Z,4.96
2023-05-16T04:50:35.012Z,5.11
2023-05-16T04:53:04.638Z,5.06
2023-05-16T04:55:32.958Z,5.27
2023-05-16T04:58:01.255Z,5.16
2023-05-16T05:00:29.816Z,5.19
2023-05-16T05:02:58.403Z,5.12
2023-05-16T05:05:27.070Z,5.24
2023-05-16T05:07:55.541Z,5.26
2023-05-16T05:10:25.203Z,5.21
2023-05-16T05:12:53.373Z,5.34
2023-05-16T05:15:21.536Z,5.42
2023-05-16T05:17:49.865Z,5.73
2023-05-16T05:20:18.550Z,5.76
2023-05-16T05:22:47.194Z,5.74
2023-05-16T05:25:16.300Z,5.67
2023-05-16T05:27:46.084Z,5.73
2023-05-16T05:30:14.933Z,5.86
2023-05-16T05:32:43.095Z,5.80
2023-05-16T05:35:11.309Z,5.80
2023-05-16T05:37:39.556Z,5.62
2023-05-16T05:40:09.499Z,5.77
2023-05-16T05:42:37.941Z,5.82
2023-05-16T05:45:09.536Z,5.87
2023-05-16T05:47:37.972Z,5.79
2023-05-16T05:50:08.515Z,5.80
2023-05-16T05:52:38.069Z,5.72
2023-05-16T05:55:07.679Z,5.62
2023-05-16T05:57:35.826Z,5.88
2023-05-16T06:00:05.130Z,5.98
2023-05-16T06:02:37.437Z,5.90
2023-05-16T06:05:06.968Z,6.03
2023-05-16T06:07:35.112Z,6.03
2023-05-16T06:10:05.493Z,6.14
2023-05-16T06:12:33.806Z,6.27
2023-05-16T06:15:02.081Z,6.25
2023-05-16T06:17:30.308Z,6.09
2023-05-16T06:19:59.794Z,6.05
2023-05-16T06:22:27.953Z,6.07
2023-05-16T06:24:56.352Z,6.17
2023-05-16T06:27:24.517Z,6.08
2023-05-16T06:29:52.698Z,6.13
2023-05-16T06:32:20.964Z,6.12
2023-05-16T06:34:50.966Z,6.24
2023-05-16T06:37:20.608Z,6.20
2023-05-16T06:39:48.840Z,6.16
2023-05-16T06:42:17.232Z,6.13
2023-05-16T06:44:45.616Z,6.14
2023-05-16T06:47:14.127Z,6.32
2023-05-16T06:49:42.394Z,6.40
2023-05-16T06:52:10.624Z,6.44
2023-05-16T06:54:40.138Z,6.67
2023-05-16T06:57:08.901Z,6.63
2023-05-16T06:59:37.137Z,6.38
2023-05-16T07:02:06.236Z,6.60
2023-05-16T07:04:36.581Z,6.50
2023-05-16T07:07:07.758Z,6.31
2023-05-16T07:09:36.042Z,6.81
2023-05-16T07:12:06.781Z,7.10
2023-05-16T07:14:35.146Z,7.25
2023-05-16T07:17:03.825Z,7.46
2023-05-16T07:19:32.450Z,8.03
2023-05-16T07:22:00.824Z,8.47
2023-05-16T07:24:29.150Z,8.98
2023-05-16T07:26:57.610Z,9.02
2023-05-16T07:29:28.368Z,9.05
2023-05-16T07:31:56.987Z,8.91
2023-05-16T07:34:25.523Z,8.40
2023-05-16T07:36:53.732Z,8.26
2023-05-16T07:39:22.025Z,7.84
2023-05-16T07:41:50.575Z,7.73
2023-05-16T07:44:18.760Z,7.64
2023-05-16T07:46:48.404Z,7.54
2023-05-16T07:49:16.809Z,8.39
2023-05-16T07:51:45.240Z,9.64
2023-05-16T07:54:13.479Z,10.68
2023-05-16T07:56:41.872Z,11.10
2023-05-16T07:59:10.352Z,10.87
2023-05-16T08:01:38.645Z,11.46
2023-05-16T08:04:08.282Z,11.59
2023-05-16T08:06:37.255Z,11.52
2023-05-16T08:09:05.892Z,11.76
2023-05-16T08:11:34.576Z,12.34
2023-05-16T08:14:02.788Z,12.89
2023-05-16T08:16:31.405Z,13.15
2023-05-16T08:19:00.068Z,13.90
2023-05-16T08:21:30.651Z,12.97
2023-05-16T08:23:58.853Z,11.40
2023-05-16T08:26:27.347Z,11.48
2023-05-16T08:28:55.703Z,12.13
2023-05-16T08:31:24.373Z,12.25
2023-05-16T08:33:52.725Z,11.93
2023-05-16T08:36:21.063Z,11.55
2023-05-16T08:38:51.273Z,10.63
2023-05-16T08:41:19.710Z,10.32
2023-05-16T08:43:47.914Z,10.91
2023-05-16T08:46:16.861Z,11.37
2023-05-16T08:48:48.318Z,11.37
2023-05-16T08:51:20.002Z,11.44
2023-05-16T08:53:58.663Z,11.64
2023-05-16T08:56:28.441Z,12.37
2023-05-16T08:58:58.310Z,12.60
2023-05-16T09:01:26.742Z,13.11
2023-05-16T09:03:56.473Z,12.97
2023-05-16T09:06:25.111Z,13.18
2023-05-16T09:08:55.060Z,13.74
2023-05-16T09:11:23.754Z,13.67
2023-05-16T09:13:52.183Z,13.00
2023-05-16T09:16:24.149Z,11.99
2023-05-16T09:18:58.245Z,11.84
2023-05-16T09:21:30.149Z,11.96
2023-05-16T09:24:05.931Z,12.22
2023-05-16T09:26:34.942Z,12.61
2023-05-16T09:29:03.311Z,12.48
2023-05-16T09:31:36.898Z,12.68
2023-05-16T09:34:08.793Z,12.64
2023-05-16T09:36:37.736Z,12.20
2023-05-16T09:39:08.248Z,11.82
2023-05-16T09:41:37.462Z,12.43
2023-05-16T09:44:07.148Z,12.58
2023-05-16T09:46:36.233Z,12.45
2023-05-16T09:49:04.946Z,12.15
2023-05-16T09:51:33.666Z,12.61
2023-05-16T09:54:01.944Z,13.19
2023-05-16T09:56:31.579Z,13.40
2023-05-16T09:58:59.776Z,12.93
2023-05-16T10:01:28.281Z,12.37
2023-05-16T10:03:58.412Z,12.12
2023-05-16T10:06:27.439Z,12.46
2023-05-16T10:08:55.955Z,12.62
2023-05-16T10:11:25.211Z,12.90
2023-05-16T10:13:54.984Z,12.73
2023-05-16T10:16:24.968Z,12.46
2023-05-16T10:18:54.951Z,12.58
2023-05-16T10:21:26.562Z,12.62
2023-05-16T10:23:58.380Z,13.09
2023-05-16T10:26:27.974Z,12.53
2023-05-16T10:28:58.202Z,12.31
2023-05-16T10:31:27.259Z,12.27
2023-05-16T10:33:56.133Z,13.08
2023-05-16T10:36:25.308Z,13.24
2023-05-16T10:38:54.280Z,13.57
2023-05-16T10:41:23.112Z,13.65
2023-05-16T10:44:00.034Z,13.56
2023-05-16T10:46:30.126Z,13.30
2023-05-16T10:49:01.097Z,13.36
2023-05-16T10:51:38.375Z,13.32
2023-05-16T10:54:08.887Z,13.23
2023-05-16T10:56:37.524Z,13.16
2023-05-16T10:59:26.223Z,13.16
2023-05-16T11:01:56.891Z,12.82
2023-05-16T11:04:45.534Z,13.35
2023-05-16T11:07:14.000Z,13.62
2023-05-16T11:09:46.281Z,13.62
2023-05-16T11:12:15.668Z,13.33
2023-05-16T11:14:47.737Z,12.92
2023-05-16T11:17:17.605Z,12.80
2023-05-16T11:19:48.963Z,13.05
2023-05-16T11:22:28.195Z,12.86
2023-05-16T11:25:00.209Z,13.31
2023-05-16T11:27:31.224Z,13.82
2023-05-16T11:30:15.558Z,13.61
2023-05-16T11:32:45.979Z,13.80
2023-05-16T11:35:17.178Z,13.51
2023-05-16T11:37:48.079Z,12.52
2023-05-16T11:40:17.173Z,12.74
2023-05-16T11:42:49.328Z,12.94
2023-05-16T11:45:21.672Z,13.82
2023-05-16T11:47:51.094Z,14.31
2023-05-16T11:50:23.511Z,14.52
2023-05-16T11:52:54.193Z,14.68
2023-05-16T11:55:40.351Z,14.59
2023-05-16T11:58:09.532Z,13.98
2023-05-16T12:00:49.889Z,13.92
2023-05-16T12:03:20.532Z,14.29
2023-05-16T12:05:54.209Z,13.82
2023-05-16T12:08:24.732Z,13.28
2023-05-16T12:10:54.709Z,13.10
2023-05-16T12:13:26.442Z,13.52
2023-05-16T12:15:56.777Z,13.79
2023-05-16T12:18:26.420Z,14.35
2023-05-16T12:20:54.775Z,14.56
2023-05-16T12:23:23.150Z,14.68
2023-05-16T12:25:53.000Z,14.37
2023-05-16T12:28:21.430Z,14.24
2023-05-16T12:30:49.688Z,14.24
2023-05-16T12:33:19.330Z,14.09
2023-05-16T12:35:48.607Z,14.22
2023-05-16T12:38:18.135Z,14.03
2023-05-16T12:40:47.292Z,13.90
2023-05-16T12:43:16.681Z,13.82
2023-05-16T12:45:53.107Z,14.49
2023-05-16T12:48:23.609Z,14.72
2023-05-16T12:50:54.682Z,15.03
2023-05-16T12:53:23.082Z,14.78
2023-05-16T12:55:51.498Z,14.39
2023-05-16T12:58:19.854Z,14.31
2023-05-16T13:00:48.689Z,14.41
2023-05-16T13:03:16.975Z,14.96
2023-05-16T13:05:47.836Z,15.14
2023-05-16T13:08:16.565Z,15.08
2023-05-16T13:10:44.886Z,14.58
2023-05-16T13:13:22.034Z,14.08
2023-05-16T13:15:57.463Z,13.99
2023-05-16T13:18:26.155Z,13.81
2023-05-16T13:20:55.790Z,14.03
2023-05-16T13:23:23.953Z,14.33
2023-05-16T13:25:53.352Z,14.04
2023-05-16T13:28:21.555Z,14.44
2023-05-16T13:30:49.802Z,13.96
2023-05-16T13:33:18.118Z,13.34
2023-05-16T13:35:46.410Z,13.72
2023-05-16T13:38:16.056Z,13.79
2023-05-16T13:40:44.333Z,14.33
2023-05-16T13:43:14.784Z,14.61
2023-05-16T13:45:44.326Z,14.20
2023-05-16T13:48:12.767Z,14.23
2023-05-16T13:50:44.047Z,14.37
2023-05-16T13:53:12.930Z,14.24
2023-05-16T13:55:42.510Z,13.78
2023-05-16T13:58:11.395Z,13.81
2023-05-16T14:00:44.968Z,14.37
2023-05-16T14:03:14.516Z,14.40
2023-05-16T14:05:43.045Z,14.52
2023-05-16T14:08:11.274Z,14.54
2023-05-16T14:10:39.568Z,14.55
2023-05-16T14:13:09.196Z,14.41
2023-05-16T14:15:37.652Z,14.64
2023-05-16T14:18:06.523Z,14.70
2023-05-16T14:20:34.828Z,14.95
2023-05-16T14:23:03.116Z,14.96
2023-05-16T14:25:31.842Z,14.62
2023-05-16T14:28:00.143Z,14.14
2023-05-16T14:30:30.006Z,14.06
2023-05-16T14:33:01.384Z,13.69
2023-05-16T14:35:30.187Z,13.30
2023-05-16T14:37:58.843Z,13.50
2023-05-16T14:40:27.156Z,13.68
2023-05-16T14:42:56.610Z,13.74
2023-05-16T14:45:25.998Z,13.22
2023-05-16T14:47:55.734Z,13.29
2023-05-16T14:50:24.122Z,13.52
2023-05-16T14:52:53.222Z,13.49
2023-05-16T14:55:22.867Z,13.29
2023-05-16T14:57:57.107Z,13.38
2023-05-16T15:00:28.048Z,13.26
2023-05-16T15:02:57.984Z,13.56
2023-05-16T15:05:26.426Z,13.42
2023-05-16T15:07:54.672Z,13.13
2023-05-16T15:10:22.817Z,13.25
2023-05-16T15:12:51.099Z,14.09
2023-05-16T15:15:19.541Z,14.32
2023-05-16T15:17:47.894Z,14.32
2023-05-16T15:20:17.554Z,14.36
2023-05-16T15:22:45.988Z,14.17
2023-05-16T15:25:14.423Z,14.01
2023-05-16T15:27:44.242Z,14.26
2023-05-16T15:30:13.493Z,14.34
2023-05-16T15:32:41.875Z,14.16
2023-05-16T15:35:11.363Z,13.68
2023-05-16T15:37:42.042Z,13.30
2023-05-16T15:40:12.442Z,12.91
2023-05-16T15:42:44.106Z,12.98
2023-05-16T15:45:13.830Z,13.44
2023-05-16T15:47:43.129Z,13.35
2023-05-16T15:50:13.464Z,13.20
2023-05-16T15:52:43.122Z,12.81
2023-05-16T15:55:12.980Z,12.77
2023-05-16T15:57:42.419Z,12.47
2023-05-16T16:00:12.437Z,12.18
2023-05-16T16:02:42.437Z,12.25
2023-05-16T16:05:11.333Z,12.49
2023-05-16T16:07:39.620Z,12.61
2023-05-16T16:10:11.363Z,12.87
2023-05-16T16:12:40.625Z,13.01
2023-05-16T16:15:11.906Z,12.40
2023-05-16T16:17:40.354Z,12.62
2023-05-16T16:20:09.797Z,12.20
2023-05-16T16:22:38.285Z,11.97
2023-05-16T16:25:09.924Z,12.01
2023-05-16T16:27:38.164Z,11.68
2023-05-16T16:30:08.549Z,11.63
2023-05-16T16:32:37.191Z,11.37
2023-05-16T16:35:06.751Z,11.61
2023-05-16T16:37:35.832Z,11.52
2023-05-16T16:40:05.059Z,11.56
2023-05-16T16:42:34.556Z,11.75
2023-05-16T16:45:03.074Z,11.77
2023-05-16T16:47:32.388Z,11.71
2023-05-16T16:50:01.351Z,11.32
2023-05-16T16:52:30.048Z,11.29
2023-05-16T16:54:58.469Z,11.24
2023-05-16T16:57:26.811Z,11.03
2023-05-16T16:59:59.536Z,11.12
2023-05-16T17:02:28.273Z,10.96
2023-05-16T17:04:56.724Z,11.00
2023-05-16T17:07:25.164Z,10.95
2023-05-16T17:09:56.259Z,10.83
2023-05-16T17:12:28.313Z,10.97
2023-05-16T17:14:58.019Z,10.88
2023-05-16T17:17:27.213Z,10.82
2023-05-16T17:19:57.293Z,10.76
2023-05-16T17:22:25.876Z,10.98
2023-05-16T17:24:54.164Z,11.28
2023-05-16T17:27:22.360Z,11.44
2023-05-16T17:29:50.769Z,11.63
2023-05-16T17:32:21.386Z,11.94
2023-05-16T17:34:50.189Z,11.82
2023-05-16T17:37:18.574Z,11.44
2023-05-16T17:39:46.915Z,11.30
2023-05-16T17:42:15.398Z,10.93
2023-05-16T17:44:43.716Z,10.99
2023-05-16T17:47:12.169Z,10.72
2023-05-16T17:49:41.780Z,10.91
2023-05-16T17:52:10.150Z,10.94
2023-05-16T17:54:38.730Z,11.08
2023-05-16T17:57:07.221Z,10.92
2023-05-16T17:59:35.557Z,10.74
2023-05-16T18:02:04.132Z,10.20
2023-05-16T18:04:32.441Z,10.15
2023-05-16T18:07:02.142Z,9.89
2023-05-16T18:09:30.709Z,9.95
2023-05-16T18:11:59.901Z,9.94
2023-05-16T18:14:28.467Z,9.17
2023-05-16T18:16:56.953Z,9.15
2023-05-16T18:19:25.368Z,9.23
2023-05-16T18:21:53.936Z,9.09
2023-05-16T18:24:23.465Z,9.38
2023-05-16T18:26:51.921Z,9.53
2023-05-16T18:29:20.304Z,9.71
2023-05-16T18:31:49.094Z,9.46
2023-05-16T18:34:17.693Z,9.18
2023-05-16T18:36:45.971Z,9.15
2023-05-16T18:39:14.247Z,9.09
2023-05-16T18:41:46.849Z,8.90
2023-05-16T18:44:17.346Z,9.00
2023-05-16T18:46:46.964Z,8.85
2023-05-16T18:49:15.469Z,8.66
2023-05-16T18:51:43.789Z,8.55
2023-05-16T18:54:11.994Z,8.49
2023-05-16T18:56:40.413Z,8.57
2023-05-16T18:59:10.132Z,8.42
2023-05-16T19:01:38.395Z,8.49
2023-05-16T19:04:06.786Z,8.27
2023-05-16T19:06:35.037Z,8.31
2023-05-16T19:09:03.869Z,8.27
2023-05-16T19:11:32.058Z,8.32
2023-05-16T19:14:00.281Z,8.20
2023-05-16T19:16:29.833Z,8.05
2023-05-16T19:18:58.290Z,7.98
2023-05-16T19:21:26.529Z,7.93
2023-05-16T19:23:54.768Z,7.88
2023-05-16T19:26:22.954Z,7.77
2023-05-16T19:28:51.444Z,7.89
2023-05-16T19:31:19.644Z,8.04
2023-05-16T19:33:49.457Z,8.01
2023-05-16T19:36:17.811Z,7.77
2023-05-16T19:38:46.018Z,7.79
2023-05-16T19:41:14.369Z,7.77
2023-05-16T19:43:42.615Z,7.64
2023-05-16T19:46:10.953Z,7.63
2023-05-16T19:48:39.255Z,7.63
2023-05-16T19:51:09.166Z,7.51
2023-05-16T19:53:37.635Z,7.55
2023-05-16T19:56:06.908Z,7.45
2023-05-16T19:58:35.135Z,7.42
2023-05-16T20:01:03.512Z,7.29
2023-05-16T20:03:31.957Z,7.21
2023-05-16T20:06:00.379Z,7.16
2023-05-16T20:08:30.056Z,6.92
2023-05-16T20:10:58.355Z,6.88
2023-05-16T20:13:26.719Z,6.99
2023-05-16T20:15:55.297Z,6.97
2023-05-16T20:18:23.536Z,7.11
2023-05-16T20:20:51.906Z,7.14
2023-05-16T20:23:20.096Z,7.21
2023-05-16T20:25:49.769Z,7.15
2023-05-16T20:28:18.056Z,7.10
2023-05-16T20:30:46.437Z,7.05
2023-05-16T20:33:16.828Z,6.98
2023-05-16T20:35:45.250Z,6.96
2023-05-16T20:38:13.501Z,6.87
2023-05-16T20:40:41.960Z,6.84
2023-05-16T20:43:11.600Z,6.81
2023-05-16T20:45:39.904Z,6.78
2023-05-16T20:48:08.352Z,6.67
2023-05-16T20:50:38.942Z,6.75
2023-05-16T20:53:07.333Z,6.70
2023-05-16T20:55:35.514Z,6.69
2023-05-16T20:58:03.678Z,6.59
2023-05-16T21:00:33.937Z,6.63
2023-05-16T21:03:02.141Z,6.58
2023-05-16T21:05:30.505Z,6.60
2023-05-16T21:07:59.105Z,6.55
2023-05-16T21:10:27.604Z,6.62
2023-05-16T21:12:56.127Z,6.44
2023-05-16T21:15:24.461Z,6.35
2023-05-16T21:17:54.324Z,6.49
2023-05-16T21:20:23.034Z,6.51
2023-05-16T21:22:51.304Z,6.49
2023-05-16T21:25:19.822Z,6.38
2023-05-16T21:27:48.013Z,6.47
2023-05-16T21:30:16.802Z,6.43
2023-05-16T21:32:45.047Z,6.60
2023-05-16T21:35:14.827Z,6.55
2023-05-16T21:37:42.981Z,6.59
2023-05-16T21:40:18.889Z,6.44
2023-05-16T21:42:47.265Z,6.48
2023-05-16T21:45:16.559Z,6.50
2023-05-16T21:47:45.039Z,6.44
2023-05-16T21:50:15.272Z,6.50
2023-05-16T21:52:43.516Z,6.37
2023-05-16T21:55:11.925Z,6.40
2023-05-16T21:57:40.241Z,6.32
2023-05-16T22:00:10.191Z,6.37
2023-05-16T22:02:40.944Z,6.33
2023-05-16T22:05:10.261Z,6.28
2023-05-16T22:07:40.192Z,6.35
2023-05-16T22:10:10.730Z,6.42
2023-05-16T22:12:39.784Z,6.27
2023-05-16T22:15:09.161Z,6.41
2023-05-16T22:17:37.834Z,6.27
2023-05-16T22:20:08.154Z,6.34
2023-05-16T22:22:36.362Z,6.34
2023-05-16T22:25:07.371Z,6.34
2023-05-16T22:27:35.618Z,6.09
2023-05-16T22:30:04.034Z,6.03
2023-05-16T22:32:32.366Z,6.03
2023-05-16T22:35:00.690Z,6.12
2023-05-16T22:37:28.957Z,6.22
2023-05-16T22:39:59.848Z,5.90
2023-05-16T22:42:30.431Z,6.01
2023-05-16T22:44:58.684Z,6.07
2023-05-16T22:47:29.019Z,6.12
2023-05-16T22:49:57.466Z,5.78
2023-05-16T22:52:25.945Z,6.09
2023-05-16T22:54:54.176Z,5.95
2023-05-16T22:57:22.477Z,5.94
2023-05-16T22:59:52.191Z,5.86
2023-05-16T23:02:20.409Z,5.92
2023-05-16T23:04:48.602Z,5.67
2023-05-16T23:07:16.814Z,5.63
2023-05-16T23:09:45.064Z,5.75
2023-05-16T23:12:13.371Z,5.58
2023-05-16T23:14:41.654Z,5.55
2023-05-16T23:17:11.260Z,5.58
2023-05-16T23:19:39.561Z,5.67
2023-05-16T23:22:08.095Z,5.80
2023-05-16T23:24:36.317Z,5.69
2023-05-16T23:27:04.887Z,5.72
2023-05-16T23:29:33.121Z,5.34
2023-05-16T23:32:01.321Z,5.62
2023-05-16T23:34:30.878Z,5.62
2023-05-16T23:36:59.100Z,5.61
2023-05-16T23:39:28.694Z,5.66
2023-05-16T23:41:57.026Z,5.68
2023-05-16T23:44:25.337Z,5.66
2023-05-16T23:46:53.554Z,5.50
2023-05-16T23:49:21.785Z,5.55
2023-05-16T23:54:22.552Z,5.62
2023-05-16T23:56:51.128Z,5.68
2023-05-16T23:59:20.009Z,5.68
